»·PEaware :: USA758 KSFO-KSAN

USA758 :: KSFO-KSAN

FLIGHT INFORMATION

Flight Status: Arrived
Operator:
US Airways
More flights by this operator :: More flights under this callsign
Pilot: Ruben R. (12247)
Aircraft: BOEING 737-200
(B732)
More flights by this aircraft type
Origin: KSFO San Francisco Intl
United States
Destination: KSAN San Diego Intl-Lindbergh
United States
More flights between these airports :: More routes between these airports
Route: +OFFSH1 MCKEY LAX COMIX1
File this flight plan on PilotEdge
Remarks: TWITCH.TV / THEMACH3LOUNGE
Altitude:
(Current/Filed)
31,000ft
Speed:
(Current/Filed)
450kts
Departed: 31-Jan-18 08:37 PM
Arrived: 31-Jan-18 09:58 PM
Distance/Time
Traveled:
388nm/1:20
Distance/Time
To Go:
Arrived

Flight Plot

Page will automatically refresh every two minutes.

Flight plan parsing failed; only flown route is shown


Map Options




Map Legend


Flown Route
Filed Route
Departure Airport
Arrival Airport
Navaid (VOR, NDB)
Fix

Horizontal Profiles

Position Reports

Time Latitude Longitude Heading Altitude Ground
Speed
31-Jan-18 20:19 37.611290 -122.390307 42 21ft 0kts
31-Jan-18 20:20 37.611290 -122.390307 42 21ft 0kts
31-Jan-18 20:21 37.611290 -122.390307 42 21ft 0kts
31-Jan-18 20:22 37.611290 -122.390307 42 21ft 0kts
31-Jan-18 20:23 37.611290 -122.390307 42 21ft 0kts
31-Jan-18 20:24 37.611290 -122.390307 42 21ft 0kts
31-Jan-18 20:25 37.611290 -122.390307 42 21ft 0kts
31-Jan-18 20:26 37.611290 -122.390307 42 21ft 0kts
31-Jan-18 20:27 37.611290 -122.390307 42 21ft 0kts
31-Jan-18 20:28 37.611290 -122.390307 42 21ft 0kts
31-Jan-18 20:29 37.611174 -122.390442 43 21ft 2kts
31-Jan-18 20:30 37.610955 -122.391079 107 21ft 2kts
31-Jan-18 20:31 37.611141 -122.391382 148 21ft 0kts
31-Jan-18 20:32 37.611141 -122.391382 148 21ft 0kts
31-Jan-18 20:33 37.611141 -122.391382 148 21ft 0kts
31-Jan-18 20:34 37.611141 -122.391382 148 21ft 0kts
31-Jan-18 20:35 37.611141 -122.391382 148 21ft 0kts
31-Jan-18 20:36 37.611141 -122.391382 148 21ft 0kts
31-Jan-18 20:37 37.611141 -122.391382 148 21ft 0kts
31-Jan-18 20:38 37.610167 -122.389555 86 21ft 13kts
31-Jan-18 20:39 37.610233 -122.385802 117 21ft 7kts
31-Jan-18 20:40 37.608730 -122.384381 132 21ft 13kts
31-Jan-18 20:41 37.608458 -122.383813 117 21ft 0kts
31-Jan-18 20:42 37.608186 -122.382916 75 21ft 8kts
31-Jan-18 20:43 37.625708 -122.371123 25 114ft 161kts
31-Jan-18 20:44 37.670604 -122.355157 355 1503ft 224kts
31-Jan-18 20:45 37.709033 -122.407952 255 3849ft 253kts
31-Jan-18 20:46 37.672789 -122.486058 239 6466ft 270kts
31-Jan-18 20:47 37.630053 -122.565088 238 8860ft 283kts
31-Jan-18 20:48 37.584164 -122.647246 238 11106ft 293kts
31-Jan-18 20:49 37.531848 -122.725581 206 13125ft 310kts
31-Jan-18 20:50 37.447585 -122.705937 163 14868ft 328kts
31-Jan-18 20:51 37.359059 -122.676938 168 16481ft 336kts
31-Jan-18 20:52 37.267001 -122.651851 169 17953ft 345kts
31-Jan-18 20:53 37.172675 -122.626967 169 19530ft 354kts
31-Jan-18 20:54 37.087063 -122.604541 169 20788ft 362kts
31-Jan-18 20:55 36.989010 -122.578943 169 22036ft 370kts
31-Jan-18 20:56 36.898750 -122.555399 169 23054ft 375kts
31-Jan-18 20:57 36.796616 -122.528847 169 24048ft 381kts
31-Jan-18 20:58 36.692712 -122.501919 169 24781ft 392kts
31-Jan-18 20:59 36.581615 -122.473218 169 24858ft 431kts
31-Jan-18 21:00 36.460432 -122.441453 163 25168ft 459kts
31-Jan-18 21:01 36.363289 -122.343162 130 26099ft 463kts
31-Jan-18 21:02 36.280280 -122.224493 129 26886ft 468kts
31-Jan-18 21:03 36.197285 -122.103991 129 27581ft 473kts
31-Jan-18 21:04 36.112392 -121.981030 129 28187ft 478kts
31-Jan-18 21:05 36.026022 -121.856378 129 28763ft 482kts
31-Jan-18 21:06 35.938814 -121.730980 129 29254ft 486kts
31-Jan-18 21:07 35.853206 -121.608340 129 29668ft 489kts
31-Jan-18 21:08 35.776380 -121.498654 129 29988ft 492kts
31-Jan-18 21:09 35.687708 -121.372494 129 30321ft 494kts
31-Jan-18 21:10 35.604868 -121.255047 130 30596ft 496kts
31-Jan-18 21:11 35.519229 -121.134063 130 30844ft 498kts
31-Jan-18 21:12 35.436180 -120.999662 123 30863ft 503kts
31-Jan-18 21:13 35.356542 -120.859061 123 30831ft 509kts
31-Jan-18 21:14 35.279181 -120.722803 123 30827ft 510kts
31-Jan-18 21:15 35.199176 -120.582432 123 30828ft 507kts
31-Jan-18 21:16 35.119888 -120.443869 123 30828ft 499kts
31-Jan-18 21:17 35.046093 -120.315389 123 30826ft 493kts
31-Jan-18 21:18 34.988575 -120.215662 123 30829ft 488kts
31-Jan-18 21:19 34.933824 -120.120902 122 30834ft 483kts
31-Jan-18 21:20 34.864521 -120.001289 122 30831ft 478kts
31-Jan-18 21:21 34.789694 -119.872613 122 30823ft 473kts
31-Jan-18 21:22 34.740624 -119.788495 122 30809ft 471kts
31-Jan-18 21:23 34.694803 -119.710134 122 30796ft 470kts
31-Jan-18 21:24 34.624592 -119.590374 122 30799ft 474kts
31-Jan-18 21:25 34.549234 -119.462290 122 30801ft 482kts
31-Jan-18 21:26 34.474888 -119.336428 123 30426ft 471kts
31-Jan-18 21:27 34.427731 -119.256757 123 28507ft 465kts
31-Jan-18 21:28 34.367163 -119.167526 144 27801ft 432kts
31-Jan-18 21:29 34.250957 -119.147363 180 27816ft 451kts
31-Jan-18 21:30 34.124063 -119.148714 180 27818ft 474kts
31-Jan-18 21:31 33.993304 -119.149897 180 25541ft 470kts
31-Jan-18 21:32 33.873478 -119.125372 140 23836ft 445kts
31-Jan-18 21:33 33.831225 -118.991245 92 23827ft 458kts
31-Jan-18 21:34 33.818208 -118.840618 93 23809ft 445kts
31-Jan-18 21:35 33.805350 -118.695713 93 23819ft 440kts
31-Jan-18 21:36 33.792174 -118.547954 93 23813ft 465kts
31-Jan-18 21:37 33.783365 -118.420645 92 23885ft 475kts
31-Jan-18 21:38 33.774949 -118.296902 92 23803ft 469kts
31-Jan-18 21:39 33.755515 -118.156936 112 23808ft 465kts
31-Jan-18 21:40 33.721496 -118.086508 121 23805ft 464kts
31-Jan-18 21:41 33.654951 -117.973585 124 23799ft 459kts
31-Jan-18 21:42 33.571107 -117.871259 142 22508ft 454kts
31-Jan-18 21:43 33.482211 -117.791926 141 20533ft 389kts
31-Jan-18 21:44 33.398616 -117.716976 141 18584ft 373kts
31-Jan-18 21:45 33.319793 -117.646441 142 16655ft 362kts
31-Jan-18 21:46 33.241058 -117.576154 142 14721ft 350kts
31-Jan-18 21:47 33.164781 -117.508210 142 13693ft 344kts
31-Jan-18 21:48 33.088957 -117.443436 144 11977ft 326kts
31-Jan-18 21:49 33.024166 -117.389223 144 10543ft 276kts
31-Jan-18 21:50 32.963552 -117.338407 144 8331ft 266kts
31-Jan-18 21:51 32.911732 -117.295083 144 7103ft 240kts
31-Jan-18 21:52 32.858958 -117.251188 144 6791ft 252kts
31-Jan-18 21:53 32.813431 -117.204266 110 6770ft 226kts
31-Jan-18 21:54 32.797217 -117.141991 105 5791ft 208kts
31-Jan-18 21:55 32.783378 -117.082972 104 5843ft 222kts
31-Jan-18 21:56 32.767698 -117.018091 105 5234ft 194kts
31-Jan-18 21:57 32.751160 -116.964401 132 4436ft 166kts
31-Jan-18 21:58 32.705583 -116.954425 206 3519ft 187kts
31-Jan-18 21:59 32.683221 -117.004717 278 3512ft 185kts
31-Jan-18 22:00 32.697526 -117.053249 297 2253ft 138kts
31-Jan-18 22:01 32.710561 -117.094827 287 1337ft 135kts
31-Jan-18 22:02 32.719661 -117.131993 287 908ft 136kts
31-Jan-18 22:03 32.729642 -117.173518 287 161ft 133kts
31-Jan-18 22:04 32.735256 -117.197711 251 21ft 13kts
31-Jan-18 22:05 32.734793 -117.199282 242 21ft 5kts
31-Jan-18 22:06 32.733032 -117.199370 101 20ft 8kts
31-Jan-18 22:07 32.732983 -117.198834 95 20ft 0kts

Navigation Log

Ident Type
Flight plan parsing failed, navigation log unavailable